createdAt,value
2017-10-11T00:00:13.506Z,13.4
2017-10-11T00:01:15.160Z,12.1
2017-10-11T00:02:16.808Z,16.8
2017-10-11T00:03:18.465Z,9.8
2017-10-11T00:04:20.120Z,10.7
2017-10-11T00:05:21.782Z,12.9
2017-10-11T00:06:23.479Z,10.8
2017-10-11T00:07:25.127Z,10.7
2017-10-11T00:08:26.781Z,9.9
2017-10-11T00:09:28.440Z,10.2
2017-10-11T00:10:30.080Z,11.3
2017-10-11T00:11:31.739Z,10.5
2017-10-11T00:12:33.397Z,14.4
2017-10-11T00:13:35.048Z,13.4
2017-10-11T00:14:36.711Z,10.8
2017-10-11T00:15:38.363Z,17.8
2017-10-11T00:16:40.020Z,14.0
2017-10-11T00:17:41.680Z,16.9
2017-10-11T00:18:43.330Z,15.6
2017-10-11T00:19:44.988Z,15.8
2017-10-11T00:20:46.652Z,14.2
2017-10-11T00:21:48.306Z,12.8
2017-10-11T00:22:49.985Z,17.0
2017-10-11T00:23:51.639Z,10.4
2017-10-11T00:24:53.301Z,11.6
2017-10-11T00:25:54.974Z,12.9
2017-10-11T00:26:56.645Z,12.6
2017-10-11T00:27:58.287Z,11.9
2017-10-11T00:28:59.952Z,12.7
2017-10-11T00:30:01.597Z,11.9
2017-10-11T00:31:03.252Z,10.5
2017-10-11T00:32:04.916Z,12.2
2017-10-11T00:33:06.562Z,13.1
2017-10-11T00:34:08.224Z,11.6
2017-10-11T00:35:09.942Z,12.0
2017-10-11T00:36:11.608Z,11.3
2017-10-11T00:37:13.261Z,10.9
2017-10-11T00:38:14.924Z,12.5
2017-10-11T00:39:16.577Z,12.3
2017-10-11T00:40:18.220Z,10.7
2017-10-11T00:41:19.902Z,10.0
2017-10-11T00:42:21.558Z,11.3
2017-10-11T00:43:23.243Z,13.4
2017-10-11T00:44:24.905Z,13.4
2017-10-11T00:45:26.560Z,9.2
2017-10-11T00:46:28.225Z,12.0
2017-10-11T00:47:29.874Z,12.0
2017-10-11T00:48:31.529Z,11.8
2017-10-11T00:49:33.232Z,12.1
2017-10-11T00:50:34.890Z,11.9
2017-10-11T00:51:36.539Z,14.6
2017-10-11T00:52:38.202Z,11.8
2017-10-11T00:53:39.855Z,13.8
2017-10-11T00:54:41.512Z,12.1
2017-10-11T00:55:43.176Z,14.6
2017-10-11T00:56:44.826Z,12.6
2017-10-11T00:57:46.495Z,11.1
2017-10-11T00:58:48.150Z,12.2
2017-10-11T00:59:49.826Z,11.0
2017-10-11T01:00:51.469Z,10.3
2017-10-11T01:01:53.130Z,11.5
2017-10-11T01:02:54.787Z,10.7
2017-10-11T01:03:56.441Z,13.2
2017-10-11T01:04:58.092Z,11.2
2017-10-11T01:05:59.753Z,10.5
2017-10-11T01:07:01.404Z,12.9
2017-10-11T01:08:03.060Z,11.0
2017-10-11T01:09:04.712Z,10.1
2017-10-11T01:10:06.366Z,9.9
2017-10-11T01:11:08.029Z,10.6
2017-10-11T01:12:09.684Z,12.1
2017-10-11T01:13:11.334Z,13.0
2017-10-11T01:14:13.000Z,11.6
2017-10-11T01:15:14.653Z,13.4
2017-10-11T01:16:16.316Z,10.3
2017-10-11T01:17:17.975Z,12.7
2017-10-11T01:18:19.627Z,12.3
2017-10-11T01:19:21.292Z,10.1
2017-10-11T01:20:22.964Z,12.6
2017-10-11T01:21:24.620Z,15.2
2017-10-11T01:22:26.277Z,10.8
2017-10-11T01:23:27.941Z,12.3
2017-10-11T01:24:29.601Z,10.9
2017-10-11T01:25:31.258Z,12.7
2017-10-11T01:26:32.922Z,11.1
2017-10-11T01:27:34.575Z,10.5
2017-10-11T01:28:36.218Z,11.9
2017-10-11T01:29:37.881Z,12.2
2017-10-11T01:30:39.531Z,11.8
2017-10-11T01:31:41.192Z,11.0
2017-10-11T01:32:42.846Z,10.5
2017-10-11T01:33:44.499Z,12.3
2017-10-11T01:34:46.154Z,9.6
2017-10-11T01:35:47.809Z,11.1
2017-10-11T01:36:49.461Z,11.7
2017-10-11T01:37:51.126Z,13.6
2017-10-11T01:38:52.780Z,9.2
2017-10-11T01:39:54.440Z,11.6
2017-10-11T01:40:56.094Z,10.9
2017-10-11T01:41:57.780Z,12.5
2017-10-11T01:42:59.451Z,11.5
2017-10-11T01:44:01.114Z,10.6
2017-10-11T01:45:02.772Z,12.7
2017-10-11T01:46:04.429Z,12.3
2017-10-11T01:47:06.080Z,11.2
2017-10-11T01:48:07.813Z,10.8
2017-10-11T01:49:09.463Z,10.6
2017-10-11T01:50:11.121Z,12.9
2017-10-11T01:51:12.770Z,11.8
2017-10-11T01:52:14.424Z,13.3
2017-10-11T01:53:16.081Z,13.1
2017-10-11T01:54:17.741Z,12.2
2017-10-11T01:55:19.394Z,11.9
2017-10-11T02:01:47.382Z,13.2
2017-10-11T02:02:49.024Z,12.3
2017-10-11T02:04:40.835Z,12.9
2017-10-11T02:05:42.475Z,14.0
2017-10-11T02:07:34.316Z,14.5
2017-10-11T02:08:35.972Z,14.9
2017-10-11T02:09:37.623Z,14.8
2017-10-11T02:10:39.278Z,17.1
2017-10-11T02:11:40.934Z,18.7
2017-10-11T02:12:42.587Z,18.4
2017-10-11T02:13:44.241Z,17.7
2017-10-11T02:14:45.898Z,14.9
2017-10-11T02:15:47.559Z,16.0
2017-10-11T02:16:49.202Z,15.4
2017-10-11T02:17:50.873Z,16.5
2017-10-11T02:18:52.515Z,15.9
2017-10-11T02:19:54.183Z,16.1
2017-10-11T02:20:55.841Z,15.5
2017-10-11T02:21:57.505Z,14.7
2017-10-11T02:22:59.164Z,15.9
2017-10-11T02:24:00.808Z,16.9
2017-10-11T02:25:02.464Z,13.5
2017-10-11T02:26:04.119Z,12.9
2017-10-11T02:27:05.776Z,14.6
2017-10-11T02:28:07.434Z,13.4
2017-10-11T02:29:09.085Z,13.6
2017-10-11T02:30:10.742Z,14.0
2017-10-11T02:31:12.396Z,12.3
2017-10-11T02:32:14.053Z,12.2
2017-10-11T02:33:15.720Z,12.9
2017-10-11T02:34:17.375Z,14.3
2017-10-11T02:35:19.028Z,12.6
2017-10-11T02:36:20.687Z,14.6
2017-10-11T02:37:22.342Z,13.6
2017-10-11T02:38:24.003Z,14.0
2017-10-11T02:39:25.653Z,12.0
2017-10-11T02:40:27.314Z,14.0
2017-10-11T02:41:28.971Z,13.6
2017-10-11T02:42:30.622Z,13.2
2017-10-11T02:43:32.274Z,12.0
2017-10-11T02:44:33.931Z,11.9
2017-10-11T02:45:35.586Z,13.9
2017-10-11T02:46:37.237Z,12.1
2017-10-11T02:47:38.888Z,15.3
2017-10-11T02:48:40.535Z,12.3
2017-10-11T02:49:42.191Z,12.9
2017-10-11T02:50:43.853Z,10.6
2017-10-11T02:51:45.508Z,12.7
2017-10-11T02:52:47.162Z,11.7
2017-10-11T02:53:48.819Z,11.9
2017-10-11T02:54:50.483Z,15.7
2017-10-11T02:55:52.134Z,9.9
2017-10-11T02:56:53.800Z,12.5
2017-10-11T02:57:55.461Z,11.7
2017-10-11T02:58:57.120Z,15.3
2017-10-11T02:59:58.769Z,13.7
2017-10-11T03:01:00.425Z,11.8
2017-10-11T03:02:02.075Z,11.9
2017-10-11T03:03:03.724Z,11.9
2017-10-11T03:04:05.385Z,14.6
2017-10-11T03:05:07.040Z,12.3
2017-10-11T03:06:08.693Z,12.6
2017-10-11T03:07:10.348Z,14.8
2017-10-11T03:08:12.005Z,14.0
2017-10-11T03:09:13.655Z,12.6
2017-10-11T03:10:15.311Z,12.6
2017-10-11T03:11:16.968Z,14.3
2017-10-11T03:12:18.637Z,16.6
2017-10-11T03:13:20.295Z,14.3
2017-10-11T03:14:21.952Z,13.6
2017-10-11T03:15:23.644Z,12.2
2017-10-11T03:16:25.295Z,11.3
2017-10-11T03:17:26.958Z,12.7
2017-10-11T03:18:28.613Z,12.6
2017-10-11T03:19:30.275Z,13.3
2017-10-11T03:20:31.923Z,13.9
2017-10-11T03:21:33.578Z,10.5
2017-10-11T03:22:35.229Z,10.6
2017-10-11T03:23:36.896Z,11.8
2017-10-11T03:24:38.555Z,13.1
2017-10-11T03:25:40.206Z,14.4
2017-10-11T03:26:41.864Z,12.9
2017-10-11T03:27:43.525Z,11.6
2017-10-11T03:28:45.190Z,13.7
2017-10-11T03:29:46.848Z,11.0
2017-10-11T03:30:48.508Z,11.6
2017-10-11T03:31:50.158Z,11.8
2017-10-11T03:32:51.905Z,12.5
2017-10-11T03:33:53.565Z,10.6
2017-10-11T03:34:55.218Z,12.2
2017-10-11T03:35:56.881Z,12.5
2017-10-11T03:36:58.534Z,11.3
2017-10-11T03:38:00.198Z,10.5
2017-10-11T03:39:01.860Z,11.2
2017-10-11T03:40:03.529Z,13.8
2017-10-11T03:41:05.196Z,12.6
2017-10-11T03:42:06.860Z,12.6
2017-10-11T03:43:08.521Z,10.7
2017-10-11T03:44:10.180Z,11.2
2017-10-11T03:45:11.853Z,10.7
2017-10-11T03:46:13.514Z,12.7
2017-10-11T03:47:15.162Z,14.5
2017-10-11T03:48:16.820Z,12.1
2017-10-11T03:49:18.477Z,12.0
2017-10-11T03:50:20.132Z,11.4
2017-10-11T03:51:21.785Z,11.4
2017-10-11T03:52:23.468Z,12.4
2017-10-11T03:53:25.118Z,12.5
2017-10-11T03:54:26.772Z,10.9
2017-10-11T03:55:28.429Z,10.5
2017-10-11T03:56:30.082Z,12.1
2017-10-11T03:57:31.740Z,13.7
2017-10-11T03:58:33.403Z,14.3
2017-10-11T03:59:35.052Z,10.1
2017-10-11T04:00:36.707Z,10.4
2017-10-11T04:01:38.363Z,12.2
2017-10-11T04:02:40.025Z,13.4
2017-10-11T04:03:41.713Z,14.1
2017-10-11T04:04:43.422Z,13.0
2017-10-11T04:05:45.077Z,11.1
2017-10-11T04:06:46.741Z,11.9
2017-10-11T04:07:48.387Z,11.3
2017-10-11T04:08:50.041Z,12.2
2017-10-11T04:09:51.697Z,13.9
2017-10-11T04:10:53.349Z,12.6
2017-10-11T04:11:55.035Z,11.6
2017-10-11T04:12:56.690Z,12.7
2017-10-11T04:13:58.350Z,11.9
2017-10-11T04:15:00.018Z,13.4
2017-10-11T04:16:01.666Z,12.4
2017-10-11T04:17:03.323Z,12.3
2017-10-11T04:18:04.987Z,11.5
2017-10-11T04:19:06.646Z,13.7
2017-10-11T04:20:08.301Z,13.8
2017-10-11T04:21:09.959Z,12.5
2017-10-11T04:22:11.681Z,13.5
2017-10-11T04:23:13.340Z,13.9
2017-10-11T04:24:15.002Z,12.3
2017-10-11T04:25:16.652Z,15.0
2017-10-11T04:26:18.310Z,14.5
2017-10-11T04:27:19.985Z,14.6
2017-10-11T04:28:21.664Z,13.1
2017-10-11T04:29:23.348Z,15.1
2017-10-11T04:30:25.000Z,16.5
2017-10-11T04:31:26.668Z,14.3
2017-10-11T04:32:28.319Z,15.0
2017-10-11T04:33:29.984Z,15.5
2017-10-11T04:34:31.639Z,12.7
2017-10-11T04:35:33.295Z,14.3
2017-10-11T04:36:34.952Z,13.6
2017-10-11T04:37:36.602Z,13.9
2017-10-11T04:38:38.277Z,17.2
2017-10-11T04:39:39.939Z,15.3
2017-10-11T04:40:41.606Z,12.4
2017-10-11T04:41:43.263Z,15.3
2017-10-11T04:42:44.924Z,13.8
2017-10-11T04:43:46.577Z,12.7
2017-10-11T04:44:48.237Z,12.6
2017-10-11T04:45:49.899Z,13.9
2017-10-11T04:46:51.585Z,12.4
2017-10-11T04:47:53.239Z,13.8
2017-10-11T04:48:54.897Z,14.3
2017-10-11T04:49:56.556Z,11.5
2017-10-11T04:50:58.218Z,14.7
2017-10-11T04:51:59.898Z,12.0
2017-10-11T04:53:01.572Z,12.7
2017-10-11T04:54:03.226Z,14.5
2017-10-11T04:55:06.561Z,14.1
2017-10-11T04:56:07.783Z,15.8
2017-10-11T04:57:10.271Z,13.3
2017-10-11T04:58:11.934Z,12.6
2017-10-11T04:59:13.598Z,17.9
2017-10-11T05:00:15.351Z,14.3
2017-10-11T05:01:16.901Z,15.6
2017-10-11T05:02:18.554Z,15.2
2017-10-11T05:03:20.210Z,16.6
2017-10-11T05:04:21.879Z,15.2
2017-10-11T05:05:23.567Z,13.2
2017-10-11T05:06:25.221Z,16.1
2017-10-11T05:07:27.031Z,15.8
2017-10-11T05:08:28.696Z,16.8
2017-10-11T05:09:30.395Z,15.2
2017-10-11T05:10:32.052Z,14.7
2017-10-11T05:11:33.709Z,16.6
2017-10-11T05:12:35.368Z,14.8
2017-10-11T05:13:37.024Z,20.4
2017-10-11T05:14:38.682Z,16.8
2017-10-11T05:15:40.349Z,17.6
2017-10-11T05:16:43.841Z,16.3
2017-10-11T05:17:46.594Z,15.7
2017-10-11T05:18:47.517Z,15.7
2017-10-11T05:19:49.186Z,15.9
2017-10-11T05:20:50.873Z,15.0
2017-10-11T05:21:52.526Z,15.6
2017-10-11T05:22:54.176Z,16.1
2017-10-11T05:23:55.829Z,15.7
2017-10-11T05:24:57.480Z,15.5
2017-10-11T05:25:59.139Z,15.2
2017-10-11T05:27:00.793Z,15.9
2017-10-11T05:28:02.451Z,14.5
2017-10-11T05:29:04.142Z,15.1
2017-10-11T05:30:05.799Z,15.4
2017-10-11T05:31:07.462Z,17.6
2017-10-11T05:32:09.120Z,17.1
2017-10-11T05:33:10.779Z,15.6
2017-10-11T05:34:12.447Z,14.8
2017-10-11T05:35:14.124Z,17.6
2017-10-11T05:36:15.788Z,15.2
2017-10-11T05:37:17.454Z,14.9
2017-10-11T05:38:19.110Z,16.6
2017-10-11T05:39:20.784Z,14.3
2017-10-11T05:40:22.434Z,14.6
2017-10-11T05:41:24.099Z,13.8
2017-10-11T05:42:25.774Z,15.5
2017-10-11T05:43:27.611Z,15.6
2017-10-11T05:44:29.219Z,15.4
2017-10-11T05:45:30.886Z,15.6
2017-10-11T05:46:32.546Z,14.5
2017-10-11T05:47:34.216Z,16.8
2017-10-11T05:48:35.883Z,17.8
2017-10-11T05:49:37.546Z,14.1
2017-10-11T05:50:39.246Z,15.8
2017-10-11T05:51:40.933Z,15.1
2017-10-11T05:52:42.598Z,15.6
2017-10-11T05:53:44.254Z,16.8
2017-10-11T05:54:47.003Z,20.5
2017-10-11T06:01:16.978Z,10.9
2017-10-11T06:02:18.695Z,16.5
2017-10-11T06:04:10.556Z,16.7
2017-10-11T06:05:12.222Z,15.9
2017-10-11T06:06:13.891Z,16.3
2017-10-11T06:07:15.541Z,14.9
2017-10-11T06:08:17.298Z,24.3
2017-10-11T06:09:18.830Z,17.9
2017-10-11T06:10:20.483Z,20.4
2017-10-11T06:11:22.269Z,24.3
2017-10-11T06:12:23.929Z,17.9
2017-10-11T06:13:25.593Z,14.8
2017-10-11T06:14:27.251Z,15.6
2017-10-11T06:15:28.923Z,20.1
2017-10-11T06:16:30.589Z,17.0
2017-10-11T06:17:32.340Z,16.3
2017-10-11T06:18:33.992Z,16.1
2017-10-11T06:19:35.662Z,17.1
2017-10-11T06:20:37.333Z,17.7
2017-10-11T06:21:39.008Z,16.5
2017-10-11T06:22:40.663Z,18.1
2017-10-11T06:23:42.320Z,16.7
2017-10-11T06:24:43.985Z,17.7
2017-10-11T06:25:45.650Z,18.1
2017-10-11T06:26:47.318Z,15.0
2017-10-11T06:27:48.980Z,15.0
2017-10-11T06:28:50.637Z,17.1
2017-10-11T06:29:52.307Z,16.8
2017-10-11T06:30:53.957Z,15.5
2017-10-11T06:31:55.620Z,18.0
2017-10-11T06:32:57.278Z,16.5
2017-10-11T06:33:58.933Z,16.8
2017-10-11T06:35:00.596Z,16.7
2017-10-11T06:36:02.252Z,16.7
2017-10-11T06:37:03.910Z,17.3
2017-10-11T06:38:05.570Z,16.5
2017-10-11T06:39:07.238Z,17.3
2017-10-11T06:40:08.908Z,17.3
2017-10-11T06:41:10.575Z,17.6
2017-10-11T06:42:12.234Z,20.1
2017-10-11T06:43:13.895Z,18.4
2017-10-11T06:44:15.610Z,19.9
2017-10-11T06:45:17.275Z,18.6
2017-10-11T06:46:18.939Z,15.9
2017-10-11T06:47:20.599Z,17.7
2017-10-11T06:48:22.262Z,18.5
2017-10-11T06:49:23.924Z,14.3
2017-10-11T06:50:25.603Z,15.4
2017-10-11T06:51:27.269Z,13.6
2017-10-11T06:52:29.024Z,12.9
2017-10-11T06:53:30.689Z,16.6
2017-10-11T06:54:32.353Z,11.3
2017-10-11T06:55:34.011Z,16.9
2017-10-11T06:56:35.671Z,12.6
2017-10-11T06:57:37.328Z,13.2
2017-10-11T06:58:38.986Z,12.1
2017-10-11T06:59:40.652Z,15.4
2017-10-11T07:00:42.407Z,15.4
2017-10-11T07:01:44.057Z,13.8
2017-10-11T07:02:45.718Z,14.9
2017-10-11T07:03:47.379Z,16.2
2017-10-11T07:04:49.047Z,14.3
2017-10-11T07:05:50.712Z,14.2
2017-10-11T07:06:52.377Z,12.2
2017-10-11T07:07:54.039Z,12.5
2017-10-11T07:08:55.703Z,13.6
2017-10-11T07:09:57.365Z,11.9
2017-10-11T07:10:59.026Z,13.0
2017-10-11T07:12:00.685Z,11.8
2017-10-11T07:13:02.348Z,14.5
2017-10-11T07:14:04.010Z,13.1
2017-10-11T07:15:05.675Z,13.6
2017-10-11T07:16:07.336Z,10.8
2017-10-11T07:17:08.992Z,12.5
2017-10-11T07:18:10.760Z,15.4
2017-10-11T07:19:12.435Z,11.7
2017-10-11T07:20:14.113Z,11.0
2017-10-11T07:21:15.806Z,12.9
2017-10-11T07:22:17.564Z,13.4
2017-10-11T07:23:19.223Z,12.0
2017-10-11T07:24:20.919Z,11.7
2017-10-11T07:25:22.575Z,15.5
2017-10-11T07:26:24.238Z,11.5
2017-10-11T07:27:25.898Z,12.3
2017-10-11T07:28:27.556Z,14.9
2017-10-11T07:29:29.212Z,13.1
2017-10-11T07:30:30.881Z,11.5
2017-10-11T07:31:32.544Z,11.6
2017-10-11T07:32:34.271Z,13.3
2017-10-11T07:33:35.926Z,11.7
2017-10-11T07:34:37.588Z,11.7
2017-10-11T07:35:39.290Z,10.9
2017-10-11T07:36:40.946Z,12.5
2017-10-11T07:37:42.610Z,15.4
2017-10-11T07:38:44.274Z,13.6
2017-10-11T07:39:45.938Z,11.4
2017-10-11T07:40:47.596Z,16.3
2017-10-11T07:41:49.298Z,14.5
2017-10-11T07:42:50.973Z,12.5
2017-10-11T07:43:52.640Z,13.1
2017-10-11T07:44:54.308Z,12.1
2017-10-11T07:45:55.961Z,14.1
2017-10-11T07:46:57.629Z,12.3
2017-10-11T07:47:59.302Z,11.7
2017-10-11T07:49:00.986Z,13.0
2017-10-11T07:50:02.737Z,13.0
2017-10-11T07:51:04.393Z,12.9
2017-10-11T07:52:06.061Z,13.1
2017-10-11T07:53:07.710Z,12.3
2017-10-11T07:54:09.371Z,15.3
2017-10-11T07:55:11.033Z,15.0
2017-10-11T07:56:12.697Z,12.9
2017-10-11T07:57:14.355Z,13.5
2017-10-11T07:58:16.016Z,13.7
2017-10-11T07:59:17.673Z,11.8
2017-10-11T08:00:19.344Z,12.1
2017-10-11T08:01:21.050Z,12.8
2017-10-11T08:02:22.726Z,12.0
2017-10-11T08:03:24.394Z,12.4
2017-10-11T08:04:26.076Z,17.2
2017-10-11T08:05:27.758Z,14.1
2017-10-11T08:06:29.428Z,12.1
2017-10-11T08:07:31.162Z,11.4
2017-10-11T08:08:32.843Z,12.3
2017-10-11T08:09:34.513Z,12.7
2017-10-11T08:10:36.178Z,14.3
2017-10-11T08:11:37.886Z,11.9
2017-10-11T08:12:39.559Z,12.5
2017-10-11T08:13:41.216Z,14.5
2017-10-11T08:14:42.878Z,11.6
2017-10-11T08:15:44.577Z,12.6
2017-10-11T08:16:46.251Z,13.1
2017-10-11T08:17:47.906Z,12.9
2017-10-11T08:18:49.572Z,12.4
2017-10-11T08:19:51.227Z,12.1
2017-10-11T08:20:52.975Z,12.6
2017-10-11T08:21:54.639Z,12.9
2017-10-11T08:22:56.522Z,13.2
2017-10-11T08:23:58.303Z,11.0
2017-10-11T08:24:59.948Z,10.4
2017-10-11T08:26:01.621Z,11.7
2017-10-11T08:27:03.322Z,10.8
2017-10-11T08:28:05.045Z,10.2
2017-10-11T08:29:06.721Z,15.3
2017-10-11T08:30:08.379Z,11.3
2017-10-11T08:31:10.038Z,10.6
2017-10-11T08:32:11.746Z,10.7
2017-10-11T08:33:13.408Z,9.7
2017-10-11T08:34:15.096Z,11.2
2017-10-11T08:35:16.788Z,11.6
2017-10-11T08:36:18.464Z,8.8
2017-10-11T08:37:20.123Z,14.5
2017-10-11T08:38:21.780Z,10.0
2017-10-11T08:39:23.470Z,14.4
2017-10-11T08:40:25.194Z,10.4
2017-10-11T08:41:26.866Z,11.9
2017-10-11T08:42:28.523Z,15.9
2017-10-11T08:43:30.192Z,14.0
2017-10-11T08:44:31.854Z,16.5
2017-10-11T08:45:33.516Z,9.1
2017-10-11T08:46:35.192Z,11.5
2017-10-11T08:47:36.889Z,11.6
2017-10-11T08:48:38.559Z,10.5
2017-10-11T08:49:40.228Z,9.3
2017-10-11T08:50:41.893Z,10.1
2017-10-11T08:51:43.550Z,9.7
2017-10-11T08:52:45.234Z,9.5
2017-10-11T08:53:46.901Z,9.7
2017-10-11T08:54:48.572Z,9.9
2017-10-11T08:55:50.235Z,7.5
2017-10-11T08:56:51.933Z,9.6
2017-10-11T08:57:53.591Z,10.5
2017-10-11T08:58:55.257Z,9.4
2017-10-11T08:59:56.923Z,10.7
2017-10-11T09:00:58.590Z,10.1
2017-10-11T09:02:00.257Z,11.4
2017-10-11T09:03:01.934Z,11.4
2017-10-11T09:04:03.602Z,10.7
2017-10-11T09:05:05.256Z,10.1
2017-10-11T09:06:06.927Z,13.5
2017-10-11T09:07:08.587Z,11.9
2017-10-11T09:08:10.318Z,12.4
2017-10-11T09:09:12.073Z,12.3
2017-10-11T09:10:13.753Z,12.0
2017-10-11T09:11:15.458Z,11.2
2017-10-11T09:12:17.172Z,14.3
2017-10-11T09:13:18.849Z,13.2
2017-10-11T09:14:20.601Z,13.3
2017-10-11T09:15:22.275Z,12.3
2017-10-11T09:16:23.936Z,11.3
2017-10-11T09:17:25.621Z,12.1
2017-10-11T09:18:27.286Z,13.4
2017-10-11T09:19:28.949Z,14.9
2017-10-11T09:20:30.611Z,13.8
2017-10-11T09:21:32.318Z,11.6
2017-10-11T09:22:34.020Z,11.7
2017-10-11T09:23:35.681Z,12.6
2017-10-11T09:24:37.354Z,13.1
2017-10-11T09:25:39.016Z,13.6
2017-10-11T09:26:40.674Z,15.8
2017-10-11T09:27:42.342Z,13.9
2017-10-11T09:28:44.022Z,16.0
2017-10-11T09:29:45.705Z,15.0
2017-10-11T09:30:47.365Z,13.7
2017-10-11T09:31:49.025Z,16.6
2017-10-11T09:32:50.692Z,12.9
2017-10-11T09:33:52.351Z,15.1
2017-10-11T09:34:54.014Z,16.4
2017-10-11T09:35:55.672Z,14.2
2017-10-11T09:36:57.397Z,14.3
2017-10-11T09:37:59.022Z,13.7
2017-10-11T09:39:00.684Z,13.7
2017-10-11T09:40:02.350Z,15.5
2017-10-11T09:41:04.144Z,18.5
2017-10-11T09:42:05.806Z,15.3
2017-10-11T09:43:07.507Z,13.0
2017-10-11T09:44:09.174Z,12.1
2017-10-11T09:45:10.840Z,16.3
2017-10-11T09:46:12.521Z,13.9
2017-10-11T09:47:14.209Z,15.7
2017-10-11T09:48:15.879Z,13.7
2017-10-11T09:49:17.537Z,18.9
2017-10-11T09:50:19.247Z,17.6
2017-10-11T09:51:20.913Z,14.8
2017-10-11T09:52:22.582Z,19.0
2017-10-11T09:53:24.268Z,15.3
2017-10-11T09:54:25.980Z,13.4
2017-10-11T09:55:27.641Z,19.7
2017-10-11T10:02:06.762Z,15.1
2017-10-11T10:03:08.422Z,14.2
2017-10-11T10:04:10.079Z,19.4
2017-10-11T10:05:11.761Z,19.6
2017-10-11T10:06:13.431Z,16.3
2017-10-11T10:07:15.095Z,16.4
2017-10-11T10:08:16.760Z,17.2
2017-10-11T10:09:18.423Z,16.4
2017-10-11T10:10:20.105Z,16.0
2017-10-11T10:11:21.765Z,13.8
2017-10-11T10:12:23.474Z,14.1
2017-10-11T10:13:25.135Z,16.4
2017-10-11T10:14:26.801Z,14.3
2017-10-11T10:15:28.467Z,17.0
2017-10-11T10:16:30.157Z,18.2
2017-10-11T10:17:31.827Z,14.5
2017-10-11T10:18:33.475Z,14.5
2017-10-11T10:19:35.139Z,12.4
2017-10-11T10:20:36.803Z,14.0
2017-10-11T10:21:38.499Z,13.2
2017-10-11T10:22:40.182Z,15.6
2017-10-11T10:23:41.843Z,13.7
2017-10-11T10:24:43.503Z,16.1
2017-10-11T10:25:45.280Z,11.0
2017-10-11T10:26:46.941Z,12.2
2017-10-11T10:27:48.627Z,12.7
2017-10-11T10:28:50.358Z,12.5
2017-10-11T10:29:52.013Z,12.1
2017-10-11T10:30:53.720Z,15.2
2017-10-11T10:31:55.383Z,13.4
2017-10-11T10:32:57.070Z,14.1
2017-10-11T10:33:58.758Z,12.6
2017-10-11T10:35:00.425Z,15.5
2017-10-11T10:36:02.144Z,14.5
2017-10-11T10:37:04.719Z,11.8
2017-10-11T10:38:06.394Z,14.0
2017-10-11T10:39:08.064Z,13.7
2017-10-11T10:40:09.720Z,13.3
2017-10-11T10:41:11.399Z,12.7
2017-10-11T10:42:13.061Z,14.4
2017-10-11T10:43:14.740Z,14.8
2017-10-11T10:44:16.403Z,13.4
2017-10-11T10:45:18.769Z,14.6
2017-10-11T10:56:47.218Z,11.3
2017-10-11T10:57:48.913Z,14.6
2017-10-11T10:59:40.739Z,15.0
2017-10-11T11:00:42.397Z,13.6
2017-10-11T11:01:44.114Z,16.0
2017-10-11T11:02:45.781Z,15.7
2017-10-11T11:03:47.455Z,19.5
2017-10-11T11:04:49.117Z,17.3
2017-10-11T11:05:50.998Z,20.4
2017-10-11T11:06:52.762Z,19.5
2017-10-11T11:07:54.421Z,19.4
2017-10-11T11:08:56.126Z,17.3
2017-10-11T11:09:57.793Z,16.2
2017-10-11T11:10:59.459Z,17.4
2017-10-11T11:12:01.133Z,18.5
2017-10-11T11:13:02.793Z,18.9
2017-10-11T11:14:04.549Z,18.2
2017-10-11T11:15:06.220Z,20.5
2017-10-11T11:16:07.889Z,20.9
2017-10-11T11:17:09.553Z,20.1
2017-10-11T11:18:11.214Z,20.4
2017-10-11T11:19:12.891Z,21.5
2017-10-11T11:20:14.558Z,19.5
2017-10-11T11:21:16.237Z,22.6
2017-10-11T11:22:17.901Z,19.4
2017-10-11T11:23:19.564Z,19.8
2017-10-11T11:24:21.486Z,21.7
2017-10-11T11:25:23.200Z,22.2
2017-10-11T11:26:24.874Z,18.2
2017-10-11T11:27:26.562Z,21.1
2017-10-11T11:28:28.231Z,18.8
2017-10-11T11:29:29.920Z,23.4
2017-10-11T11:30:31.583Z,17.6
2017-10-11T11:31:33.258Z,18.6
2017-10-11T11:32:34.916Z,18.2
2017-10-11T11:33:36.660Z,20.4
2017-10-11T11:34:38.321Z,18.7
2017-10-11T11:35:39.982Z,14.3
2017-10-11T11:36:41.638Z,17.5
2017-10-11T11:37:43.299Z,15.2
2017-10-11T11:38:45.051Z,15.2
2017-10-11T11:39:46.718Z,13.3
2017-10-11T11:40:48.387Z,17.1
2017-10-11T11:41:50.063Z,14.1
2017-10-11T11:42:51.958Z,12.8
2017-10-11T11:43:53.623Z,11.2
2017-10-11T11:44:55.285Z,13.3
2017-10-11T11:45:56.948Z,11.4
2017-10-11T11:46:58.622Z,12.5
2017-10-11T11:48:00.278Z,10.9
2017-10-11T11:49:01.963Z,10.7
2017-10-11T11:50:03.628Z,11.8
2017-10-11T11:51:05.313Z,11.2
2017-10-11T11:52:07.012Z,10.1
2017-10-11T11:53:08.675Z,11.2
2017-10-11T11:54:10.339Z,9.2
2017-10-11T11:55:12.056Z,12.3
2017-10-11T11:56:13.706Z,11.6
2017-10-11T11:57:15.374Z,13.0
2017-10-11T11:58:17.056Z,12.2
2017-10-11T11:59:18.719Z,10.8
2017-10-11T12:00:20.387Z,16.0
2017-10-11T12:01:22.056Z,12.7
2017-10-11T12:02:23.718Z,13.4
2017-10-11T12:03:25.391Z,15.1
2017-10-11T12:04:27.091Z,12.1
2017-10-11T12:05:28.753Z,12.5
2017-10-11T12:06:30.456Z,14.3
2017-10-11T12:07:32.113Z,12.9
2017-10-11T12:08:33.776Z,18.3
2017-10-11T12:09:35.454Z,16.5
2017-10-11T12:10:37.120Z,13.0
2017-10-11T12:11:38.776Z,12.6
2017-10-11T12:12:40.448Z,15.2
2017-10-11T12:13:42.118Z,13.5
2017-10-11T12:14:43.804Z,16.6
2017-10-11T12:15:45.466Z,14.8
2017-10-11T12:16:47.133Z,13.1
2017-10-11T12:17:48.802Z,16.8
2017-10-11T12:18:50.469Z,13.5
2017-10-11T12:19:52.128Z,13.2
2017-10-11T12:20:53.845Z,13.9
2017-10-11T12:21:55.498Z,15.1
2017-10-11T12:22:57.242Z,13.9
2017-10-11T12:23:58.868Z,13.6
2017-10-11T12:25:00.528Z,13.2
2017-10-11T12:26:02.216Z,14.3
2017-10-11T12:27:03.870Z,10.3
2017-10-11T12:28:05.541Z,11.0
2017-10-11T12:29:07.240Z,14.9
2017-10-11T12:30:08.982Z,11.0
2017-10-11T12:31:10.648Z,12.4
2017-10-11T12:32:12.405Z,10.2
2017-10-11T12:33:14.133Z,12.7
2017-10-11T12:34:15.810Z,13.0
2017-10-11T12:35:17.507Z,10.1
2017-10-11T12:36:19.163Z,15.2
2017-10-11T12:37:20.890Z,13.6
2017-10-11T12:38:22.616Z,14.4
2017-10-11T12:39:24.324Z,10.3
2017-10-11T12:40:25.988Z,12.5
2017-10-11T12:41:27.670Z,13.6
2017-10-11T12:42:29.315Z,11.7
2017-10-11T12:43:30.985Z,12.4
2017-10-11T12:44:32.654Z,12.0
2017-10-11T12:45:34.322Z,12.9
2017-10-11T12:46:35.991Z,14.1
2017-10-11T12:47:37.662Z,11.9
2017-10-11T12:48:39.328Z,11.1
2017-10-11T12:49:40.999Z,12.5
2017-10-11T12:50:42.675Z,12.0
2017-10-11T12:51:44.360Z,13.9
2017-10-11T12:52:46.026Z,11.6
2017-10-11T12:53:47.691Z,16.4
2017-10-11T12:54:49.361Z,13.2
2017-10-11T12:55:51.058Z,12.7
2017-10-11T12:56:52.754Z,14.9
2017-10-11T12:57:54.415Z,13.5
2017-10-11T12:58:56.087Z,13.5
2017-10-11T12:59:57.761Z,16.8
2017-10-11T13:00:59.430Z,13.0
2017-10-11T13:02:01.096Z,15.9
2017-10-11T13:03:02.773Z,14.1
2017-10-11T13:04:04.429Z,13.1
2017-10-11T13:05:06.085Z,13.9
2017-10-11T13:06:07.754Z,15.8
2017-10-11T13:07:09.419Z,12.1
2017-10-11T13:08:11.117Z,14.1
2017-10-11T13:09:12.782Z,14.2
2017-10-11T13:10:14.446Z,14.9
2017-10-11T13:11:16.114Z,11.6
2017-10-11T13:12:17.775Z,15.1
2017-10-11T13:13:19.455Z,14.3
2017-10-11T13:14:21.102Z,13.4
2017-10-11T13:15:22.799Z,13.6
2017-10-11T13:16:24.477Z,17.5
2017-10-11T13:17:26.140Z,14.4
2017-10-11T13:18:27.807Z,13.6
2017-10-11T13:19:29.475Z,14.8
2017-10-11T13:20:31.159Z,16.8
2017-10-11T13:21:32.831Z,13.6
2017-10-11T13:22:34.511Z,17.2
2017-10-11T13:23:36.170Z,15.9
2017-10-11T13:24:37.843Z,15.9
2017-10-11T13:25:39.512Z,14.5
2017-10-11T13:26:41.176Z,13.1
2017-10-11T13:27:42.839Z,15.2
2017-10-11T13:28:44.502Z,12.8
2017-10-11T13:29:46.157Z,13.0
2017-10-11T13:30:47.848Z,13.7
2017-10-11T13:31:49.516Z,11.5
2017-10-11T13:32:51.206Z,13.8
2017-10-11T13:33:52.877Z,11.2
2017-10-11T13:34:54.545Z,13.0
2017-10-11T13:35:56.213Z,13.9
2017-10-11T13:36:57.869Z,12.6
2017-10-11T13:37:59.538Z,16.3
2017-10-11T13:39:01.198Z,11.6
2017-10-11T13:40:02.910Z,11.2
2017-10-11T13:41:04.577Z,15.1
2017-10-11T13:42:06.591Z,12.9
2017-10-11T13:43:08.264Z,16.3
2017-10-11T13:44:09.973Z,11.5
2017-10-11T13:45:11.635Z,13.4
2017-10-11T13:46:13.316Z,13.6
2017-10-11T13:47:14.977Z,12.1
2017-10-11T13:48:16.635Z,12.2
2017-10-11T13:49:18.312Z,13.4
2017-10-11T13:50:20.007Z,10.6
2017-10-11T13:51:21.677Z,11.5
2017-10-11T13:52:23.380Z,14.1
2017-10-11T13:53:25.037Z,11.9
2017-10-11T13:54:26.811Z,20.0
2017-10-11T13:55:28.606Z,12.5
2017-10-11T14:01:43.206Z,15.1
2017-10-11T14:02:44.874Z,15.2
2017-10-11T14:03:46.535Z,14.5
2017-10-11T14:04:48.196Z,13.2
2017-10-11T14:05:49.887Z,12.3
2017-10-11T14:06:51.557Z,11.8
2017-10-11T14:07:53.217Z,19.0
2017-10-11T14:08:54.894Z,16.1
2017-10-11T14:09:56.548Z,11.8
2017-10-11T14:10:58.205Z,12.4
2017-10-11T14:11:59.884Z,15.7
2017-10-11T14:13:01.546Z,11.4
2017-10-11T14:14:03.219Z,11.3
2017-10-11T14:15:04.888Z,11.0
2017-10-11T14:16:06.567Z,12.3
2017-10-11T14:17:08.263Z,11.7